LFBD/BOD METAR and TAF weather

Enter ICAO airport designator
Station Type Date Time Source
LFBD METAR 2021/01/16 02:30 UTC NOAA

LFBD 160230Z AUTO 26002KT 5000 BR NSC M01/M01 Q1031


Station Type Date Time Source
LFBD Decoded METAR 2021/01/16 02:30 UTC NOAA

Bordeaux / Merignac, France (LFBD) 44-50N 000-42W 61M
Jan 15, 2021 - 09:30 PM EST / 2021.01.16 0230 UTC
Wind: from the W (260 degrees) at 2 MPH (2 KT):0
Visibility: 3 mile(s):0
Weather: mist
Temperature: 30 F (-1 C)
Dew Point: 30 F (-1 C)
Relative Humidity: 100%
Pressure (altimeter): 30.45 in. Hg (1031 hPa)
ob: LFBD 160230Z AUTO 26002KT 5000 BR NSC M01/M01 Q1031
cycle: 2

Station Type Date Time Source
LFBD TAF 2021/01/15 18:42 UTC NOAA

TAF TAF LFBD 151700Z 1518/1624 34010KT 9999 SCT040 TX11/1623Z TN00/1606Z
BECMG 1519/1521 VRB03KT
TEMPO 1523/1608 MIFG PROB30
TEMPO 1604/1607 1500
BECMG 1615/1618 22010KT BKN014
TEMPO 1618/1624 -RA BKN008

Example: see airport list